<?xml version="1.0" encoding="UTF-8" standalone="no" ?>
<gpx xmlns="http://www.topografix.com/GPX/1/1" xmlns:xsi="http://www.w3.org/2001/XMLSchema-instance" xsi:schemaLocation="http://www.topografix.com/GPX/1/1 http://www.topografix.com/GPX/1/1/gpx.xsd" version="1.1" creator="VisuGPX - https://www.visugpx.com">
  <metadata>
    <name>Jouy-en-Josas Culturelle</name>
    <desc><![CDATA[Jouy-en-Josas Culturelle : 5km-70m]]></desc>
  </metadata>
  <trk>
    <name><![CDATA[2016-01-23 17:47:09 TUVB Jouy-en-Josas 001]]></name>
    <trkseg>
      <trkpt lat="48.76508" lon="2.16745">
        <ele>86.28</ele>
        <time>2016-01-23T13:11:09Z</time>
      </trkpt>
      <trkpt lat="48.76524" lon="2.16749">
        <ele>86.07</ele>
        <time>2016-01-23T13:11:26Z</time>
      </trkpt>
      <trkpt lat="48.76534" lon="2.1675">
        <ele>85.99</ele>
        <time>2016-01-23T13:11:42Z</time>
      </trkpt>
      <trkpt lat="48.76547" lon="2.16761">
        <ele>86.05</ele>
        <time>2016-01-23T13:11:53Z</time>
      </trkpt>
      <trkpt lat="48.76568" lon="2.16763">
        <ele>86.01</ele>
        <time>2016-01-23T13:12:07Z</time>
      </trkpt>
      <trkpt lat="48.76565" lon="2.16779">
        <ele>85.61</ele>
        <time>2016-01-23T13:12:23Z</time>
      </trkpt>
      <trkpt lat="48.76564" lon="2.16801">
        <ele>85.7</ele>
        <time>2016-01-23T13:12:45Z</time>
      </trkpt>
      <trkpt lat="48.76563" lon="2.16811">
        <ele>85.53</ele>
        <time>2016-01-23T13:12:51Z</time>
      </trkpt>
      <trkpt lat="48.7656" lon="2.1684">
        <ele>85.72</ele>
        <time>2016-01-23T13:13:10Z</time>
      </trkpt>
      <trkpt lat="48.76559" lon="2.16855">
        <ele>85.8</ele>
        <time>2016-01-23T13:13:22Z</time>
      </trkpt>
      <trkpt lat="48.76557" lon="2.1688">
        <ele>86.07</ele>
        <time>2016-01-23T13:13:40Z</time>
      </trkpt>
      <trkpt lat="48.76549" lon="2.16911">
        <ele>86.96</ele>
        <time>2016-01-23T13:14:00Z</time>
      </trkpt>
      <trkpt lat="48.76548" lon="2.1691">
        <ele>86.98</ele>
        <time>2016-01-23T13:14:01Z</time>
      </trkpt>
      <trkpt lat="48.76533" lon="2.16911">
        <ele>86.25</ele>
        <time>2016-01-23T13:14:15Z</time>
      </trkpt>
      <trkpt lat="48.76525" lon="2.16903">
        <ele>85.78</ele>
        <time>2016-01-23T13:14:23Z</time>
      </trkpt>
      <trkpt lat="48.76519" lon="2.16897">
        <ele>85.63</ele>
        <time>2016-01-23T13:14:29Z</time>
      </trkpt>
      <trkpt lat="48.76513" lon="2.16893">
        <ele>85.42</ele>
        <time>2016-01-23T13:14:34Z</time>
      </trkpt>
      <trkpt lat="48.76504" lon="2.16882">
        <ele>84.89</ele>
        <time>2016-01-23T13:14:50Z</time>
      </trkpt>
      <trkpt lat="48.76502" lon="2.1688">
        <ele>84.89</ele>
        <time>2016-01-23T13:14:53Z</time>
      </trkpt>
      <trkpt lat="48.76488" lon="2.1687">
        <ele>84.62</ele>
        <time>2016-01-23T13:15:05Z</time>
      </trkpt>
      <trkpt lat="48.76485" lon="2.16897">
        <ele>84.11</ele>
        <time>2016-01-23T13:15:15Z</time>
      </trkpt>
      <trkpt lat="48.76484" lon="2.16915">
        <ele>84.03</ele>
        <time>2016-01-23T13:15:27Z</time>
      </trkpt>
      <trkpt lat="48.76482" lon="2.16932">
        <ele>83.94</ele>
        <time>2016-01-23T13:15:37Z</time>
      </trkpt>
      <trkpt lat="48.76482" lon="2.16939">
        <ele>83.92</ele>
        <time>2016-01-23T13:15:39Z</time>
      </trkpt>
      <trkpt lat="48.76485" lon="2.16955">
        <ele>83.77</ele>
        <time>2016-01-23T13:15:48Z</time>
      </trkpt>
      <trkpt lat="48.76486" lon="2.1696">
        <ele>83.78</ele>
        <time>2016-01-23T13:15:54Z</time>
      </trkpt>
      <trkpt lat="48.76487" lon="2.16965">
        <ele>83.78</ele>
        <time>2016-01-23T13:15:56Z</time>
      </trkpt>
      <trkpt lat="48.76487" lon="2.1697">
        <ele>83.78</ele>
        <time>2016-01-23T13:16:00Z</time>
      </trkpt>
      <trkpt lat="48.76489" lon="2.16974">
        <ele>83.82</ele>
        <time>2016-01-23T13:16:05Z</time>
      </trkpt>
      <trkpt lat="48.76491" lon="2.1699">
        <ele>84.02</ele>
        <time>2016-01-23T13:16:25Z</time>
      </trkpt>
      <trkpt lat="48.76494" lon="2.17">
        <ele>83.78</ele>
        <time>2016-01-23T13:16:41Z</time>
      </trkpt>
      <trkpt lat="48.76501" lon="2.17029">
        <ele>82.68</ele>
        <time>2016-01-23T13:17:23Z</time>
      </trkpt>
      <trkpt lat="48.76504" lon="2.17033">
        <ele>82.52</ele>
        <time>2016-01-23T13:17:29Z</time>
      </trkpt>
      <trkpt lat="48.76502" lon="2.17028">
        <ele>81.59</ele>
        <time>2016-01-23T13:18:58Z</time>
      </trkpt>
      <trkpt lat="48.765" lon="2.17027">
        <ele>81.55</ele>
        <time>2016-01-23T13:19:00Z</time>
      </trkpt>
      <trkpt lat="48.76498" lon="2.17027">
        <ele>81.44</ele>
        <time>2016-01-23T13:19:05Z</time>
      </trkpt>
      <trkpt lat="48.76498" lon="2.17044">
        <ele>80.94</ele>
        <time>2016-01-23T13:19:26Z</time>
      </trkpt>
      <trkpt lat="48.765" lon="2.17051">
        <ele>80.91</ele>
        <time>2016-01-23T13:19:30Z</time>
      </trkpt>
      <trkpt lat="48.76501" lon="2.17067">
        <ele>80.95</ele>
        <time>2016-01-23T13:19:37Z</time>
      </trkpt>
      <trkpt lat="48.76501" lon="2.17072">
        <ele>81.03</ele>
        <time>2016-01-23T13:19:40Z</time>
      </trkpt>
      <trkpt lat="48.76493" lon="2.17083">
        <ele>81.43</ele>
        <time>2016-01-23T13:19:52Z</time>
      </trkpt>
      <trkpt lat="48.76491" lon="2.17088">
        <ele>81.53</ele>
        <time>2016-01-23T13:19:58Z</time>
      </trkpt>
      <trkpt lat="48.76488" lon="2.17089">
        <ele>81.52</ele>
        <time>2016-01-23T13:20:00Z</time>
      </trkpt>
      <trkpt lat="48.76481" lon="2.17088">
        <ele>81.36</ele>
        <time>2016-01-23T13:20:06Z</time>
      </trkpt>
      <trkpt lat="48.76463" lon="2.17082">
        <ele>81.28</ele>
        <time>2016-01-23T13:20:10Z</time>
      </trkpt>
      <trkpt lat="48.76445" lon="2.17101">
        <ele>80.89</ele>
        <time>2016-01-23T13:20:56Z</time>
      </trkpt>
      <trkpt lat="48.76439" lon="2.17104">
        <ele>80.92</ele>
        <time>2016-01-23T13:20:59Z</time>
      </trkpt>
      <trkpt lat="48.76436" lon="2.17108">
        <ele>80.91</ele>
        <time>2016-01-23T13:21:04Z</time>
      </trkpt>
      <trkpt lat="48.7643" lon="2.17111">
        <ele>81.01</ele>
        <time>2016-01-23T13:21:12Z</time>
      </trkpt>
      <trkpt lat="48.76426" lon="2.17115">
        <ele>81.09</ele>
        <time>2016-01-23T13:21:15Z</time>
      </trkpt>
      <trkpt lat="48.76424" lon="2.17118">
        <ele>81.13</ele>
        <time>2016-01-23T13:21:17Z</time>
      </trkpt>
      <trkpt lat="48.76421" lon="2.1712">
        <ele>81.29</ele>
        <time>2016-01-23T13:21:23Z</time>
      </trkpt>
      <trkpt lat="48.76396" lon="2.17142">
        <ele>81.27</ele>
        <time>2016-01-23T13:21:40Z</time>
      </trkpt>
      <trkpt lat="48.76393" lon="2.1712">
        <ele>81.31</ele>
        <time>2016-01-23T13:22:09Z</time>
      </trkpt>
      <trkpt lat="48.76402" lon="2.17081">
        <ele>81.43</ele>
        <time>2016-01-23T13:22:29Z</time>
      </trkpt>
      <trkpt lat="48.7641" lon="2.17026">
        <ele>80.91</ele>
        <time>2016-01-23T13:23:57Z</time>
      </trkpt>
      <trkpt lat="48.76414" lon="2.17022">
        <ele>81.37</ele>
        <time>2016-01-23T13:24:19Z</time>
      </trkpt>
      <trkpt lat="48.76418" lon="2.17001">
        <ele>81.05</ele>
        <time>2016-01-23T13:24:37Z</time>
      </trkpt>
      <trkpt lat="48.76422" lon="2.16982">
        <ele>80.94</ele>
        <time>2016-01-23T13:24:49Z</time>
      </trkpt>
      <trkpt lat="48.76424" lon="2.16959">
        <ele>80.86</ele>
        <time>2016-01-23T13:25:01Z</time>
      </trkpt>
      <trkpt lat="48.76429" lon="2.16928">
        <ele>80.98</ele>
        <time>2016-01-23T13:25:21Z</time>
      </trkpt>
      <trkpt lat="48.76432" lon="2.16902">
        <ele>81.14</ele>
        <time>2016-01-23T13:25:40Z</time>
      </trkpt>
      <trkpt lat="48.76435" lon="2.16882">
        <ele>81.31</ele>
        <time>2016-01-23T13:25:52Z</time>
      </trkpt>
      <trkpt lat="48.76439" lon="2.16856">
        <ele>81.53</ele>
        <time>2016-01-23T13:26:10Z</time>
      </trkpt>
      <trkpt lat="48.7644" lon="2.16838">
        <ele>81.55</ele>
        <time>2016-01-23T13:26:20Z</time>
      </trkpt>
      <trkpt lat="48.76441" lon="2.16837">
        <ele>81.55</ele>
        <time>2016-01-23T13:26:21Z</time>
      </trkpt>
      <trkpt lat="48.76444" lon="2.16818">
        <ele>81.45</ele>
        <time>2016-01-23T13:26:39Z</time>
      </trkpt>
      <trkpt lat="48.7645" lon="2.16803">
        <ele>81.46</ele>
        <time>2016-01-23T13:26:50Z</time>
      </trkpt>
      <trkpt lat="48.76436" lon="2.16794">
        <ele>81.34</ele>
        <time>2016-01-23T13:27:02Z</time>
      </trkpt>
      <trkpt lat="48.76423" lon="2.16786">
        <ele>81.5</ele>
        <time>2016-01-23T13:27:15Z</time>
      </trkpt>
      <trkpt lat="48.76418" lon="2.16784">
        <ele>81.53</ele>
        <time>2016-01-23T13:27:18Z</time>
      </trkpt>
      <trkpt lat="48.76414" lon="2.1678">
        <ele>81.59</ele>
        <time>2016-01-23T13:27:22Z</time>
      </trkpt>
      <trkpt lat="48.764" lon="2.16771">
        <ele>82.26</ele>
        <time>2016-01-23T13:27:38Z</time>
      </trkpt>
      <trkpt lat="48.76396" lon="2.16768">
        <ele>82.35</ele>
        <time>2016-01-23T13:27:43Z</time>
      </trkpt>
      <trkpt lat="48.76391" lon="2.16764">
        <ele>82.43</ele>
        <time>2016-01-23T13:27:45Z</time>
      </trkpt>
      <trkpt lat="48.76368" lon="2.16745">
        <ele>83.6</ele>
        <time>2016-01-23T13:28:04Z</time>
      </trkpt>
      <trkpt lat="48.76366" lon="2.16755">
        <ele>84.56</ele>
        <time>2016-01-23T13:28:19Z</time>
      </trkpt>
      <trkpt lat="48.76361" lon="2.16766">
        <ele>84.99</ele>
        <time>2016-01-23T13:28:38Z</time>
      </trkpt>
      <trkpt lat="48.7636" lon="2.16777">
        <ele>84.97</ele>
        <time>2016-01-23T13:29:03Z</time>
      </trkpt>
      <trkpt lat="48.7636" lon="2.16779">
        <ele>84.99</ele>
        <time>2016-01-23T13:29:07Z</time>
      </trkpt>
      <trkpt lat="48.76358" lon="2.16787">
        <ele>85.19</ele>
        <time>2016-01-23T13:30:14Z</time>
      </trkpt>
      <trkpt lat="48.76348" lon="2.16832">
        <ele>84.86</ele>
        <time>2016-01-23T13:30:42Z</time>
      </trkpt>
      <trkpt lat="48.76332" lon="2.16828">
        <ele>84.78</ele>
        <time>2016-01-23T13:30:58Z</time>
      </trkpt>
      <trkpt lat="48.76337" lon="2.16838">
        <ele>84.86</ele>
        <time>2016-01-23T13:31:58Z</time>
      </trkpt>
      <trkpt lat="48.76348" lon="2.1684">
        <ele>84.67</ele>
        <time>2016-01-23T13:32:05Z</time>
      </trkpt>
      <trkpt lat="48.76354" lon="2.16832">
        <ele>84.65</ele>
        <time>2016-01-23T13:32:16Z</time>
      </trkpt>
      <trkpt lat="48.76362" lon="2.16816">
        <ele>84.76</ele>
        <time>2016-01-23T13:32:34Z</time>
      </trkpt>
      <trkpt lat="48.76357" lon="2.1681">
        <ele>84.48</ele>
        <time>2016-01-23T13:33:22Z</time>
      </trkpt>
      <trkpt lat="48.76355" lon="2.16807">
        <ele>84.48</ele>
        <time>2016-01-23T13:34:22Z</time>
      </trkpt>
      <trkpt lat="48.76356" lon="2.16805">
        <ele>84.46</ele>
        <time>2016-01-23T13:34:25Z</time>
      </trkpt>
      <trkpt lat="48.7636" lon="2.16774">
        <ele>84.07</ele>
        <time>2016-01-23T13:35:09Z</time>
      </trkpt>
      <trkpt lat="48.76359" lon="2.1676">
        <ele>83.15</ele>
        <time>2016-01-23T13:35:33Z</time>
      </trkpt>
      <trkpt lat="48.76358" lon="2.16747">
        <ele>83.38</ele>
        <time>2016-01-23T13:35:53Z</time>
      </trkpt>
      <trkpt lat="48.76367" lon="2.16737">
        <ele>83.05</ele>
        <time>2016-01-23T13:36:11Z</time>
      </trkpt>
      <trkpt lat="48.76379" lon="2.16722">
        <ele>83.36</ele>
        <time>2016-01-23T13:36:31Z</time>
      </trkpt>
      <trkpt lat="48.76384" lon="2.167">
        <ele>83.72</ele>
        <time>2016-01-23T13:36:46Z</time>
      </trkpt>
      <trkpt lat="48.76378" lon="2.16669">
        <ele>84.66</ele>
        <time>2016-01-23T13:37:09Z</time>
      </trkpt>
      <trkpt lat="48.76373" lon="2.16649">
        <ele>84.84</ele>
        <time>2016-01-23T13:37:27Z</time>
      </trkpt>
      <trkpt lat="48.76377" lon="2.16624">
        <ele>83.98</ele>
        <time>2016-01-23T13:37:44Z</time>
      </trkpt>
      <trkpt lat="48.76379" lon="2.166">
        <ele>83.38</ele>
        <time>2016-01-23T13:38:01Z</time>
      </trkpt>
      <trkpt lat="48.76382" lon="2.16584">
        <ele>82.96</ele>
        <time>2016-01-23T13:38:13Z</time>
      </trkpt>
      <trkpt lat="48.76383" lon="2.16566">
        <ele>82.57</ele>
        <time>2016-01-23T13:38:23Z</time>
      </trkpt>
      <trkpt lat="48.76384" lon="2.16562">
        <ele>82.39</ele>
        <time>2016-01-23T13:38:26Z</time>
      </trkpt>
      <trkpt lat="48.76383" lon="2.16558">
        <ele>82.33</ele>
        <time>2016-01-23T13:38:28Z</time>
      </trkpt>
      <trkpt lat="48.76385" lon="2.16546">
        <ele>82.15</ele>
        <time>2016-01-23T13:38:38Z</time>
      </trkpt>
      <trkpt lat="48.76388" lon="2.16525">
        <ele>82.09</ele>
        <time>2016-01-23T13:38:53Z</time>
      </trkpt>
      <trkpt lat="48.76388" lon="2.16508">
        <ele>81.91</ele>
        <time>2016-01-23T13:39:04Z</time>
      </trkpt>
      <trkpt lat="48.76391" lon="2.16488">
        <ele>81.7</ele>
        <time>2016-01-23T13:39:15Z</time>
      </trkpt>
      <trkpt lat="48.76392" lon="2.16473">
        <ele>81.57</ele>
        <time>2016-01-23T13:39:25Z</time>
      </trkpt>
      <trkpt lat="48.76395" lon="2.16452">
        <ele>81.62</ele>
        <time>2016-01-23T13:39:38Z</time>
      </trkpt>
      <trkpt lat="48.76399" lon="2.16423">
        <ele>81.51</ele>
        <time>2016-01-23T13:39:55Z</time>
      </trkpt>
      <trkpt lat="48.76401" lon="2.16393">
        <ele>81.16</ele>
        <time>2016-01-23T13:40:13Z</time>
      </trkpt>
      <trkpt lat="48.76401" lon="2.16375">
        <ele>81.2</ele>
        <time>2016-01-23T13:40:25Z</time>
      </trkpt>
      <trkpt lat="48.76401" lon="2.16368">
        <ele>81.11</ele>
        <time>2016-01-23T13:40:29Z</time>
      </trkpt>
      <trkpt lat="48.76404" lon="2.16353">
        <ele>81.06</ele>
        <time>2016-01-23T13:40:38Z</time>
      </trkpt>
      <trkpt lat="48.76407" lon="2.1634">
        <ele>81.19</ele>
        <time>2016-01-23T13:40:47Z</time>
      </trkpt>
      <trkpt lat="48.76408" lon="2.16315">
        <ele>80.83</ele>
        <time>2016-01-23T13:41:03Z</time>
      </trkpt>
      <trkpt lat="48.7641" lon="2.16297">
        <ele>80.99</ele>
        <time>2016-01-23T13:41:14Z</time>
      </trkpt>
      <trkpt lat="48.76412" lon="2.16282">
        <ele>81.1</ele>
        <time>2016-01-23T13:41:25Z</time>
      </trkpt>
      <trkpt lat="48.76411" lon="2.16269">
        <ele>81.07</ele>
        <time>2016-01-23T13:41:35Z</time>
      </trkpt>
      <trkpt lat="48.76412" lon="2.16265">
        <ele>81.05</ele>
        <time>2016-01-23T13:41:38Z</time>
      </trkpt>
      <trkpt lat="48.76414" lon="2.16245">
        <ele>80.9</ele>
        <time>2016-01-23T13:41:49Z</time>
      </trkpt>
      <trkpt lat="48.76414" lon="2.16215">
        <ele>80.99</ele>
        <time>2016-01-23T13:42:05Z</time>
      </trkpt>
      <trkpt lat="48.76415" lon="2.16212">
        <ele>81</ele>
        <time>2016-01-23T13:42:07Z</time>
      </trkpt>
      <trkpt lat="48.76414" lon="2.16191">
        <ele>80.99</ele>
        <time>2016-01-23T13:42:19Z</time>
      </trkpt>
      <trkpt lat="48.76422" lon="2.16161">
        <ele>80.1</ele>
        <time>2016-01-23T13:42:40Z</time>
      </trkpt>
      <trkpt lat="48.76437" lon="2.16136">
        <ele>79.57</ele>
        <time>2016-01-23T13:43:01Z</time>
      </trkpt>
      <trkpt lat="48.7645" lon="2.16135">
        <ele>79.1</ele>
        <time>2016-01-23T13:43:26Z</time>
      </trkpt>
      <trkpt lat="48.7645" lon="2.16135">
        <ele>79.24</ele>
        <time>2016-01-23T13:43:54Z</time>
      </trkpt>
      <trkpt lat="48.76447" lon="2.16136">
        <ele>79.3</ele>
        <time>2016-01-23T13:44:15Z</time>
      </trkpt>
      <trkpt lat="48.76496" lon="2.161">
        <ele>79.93</ele>
        <time>2016-01-23T13:47:24Z</time>
      </trkpt>
      <trkpt lat="48.76517" lon="2.16101">
        <ele>80.05</ele>
        <time>2016-01-23T13:47:47Z</time>
      </trkpt>
      <trkpt lat="48.7652" lon="2.161">
        <ele>80.07</ele>
        <time>2016-01-23T13:47:51Z</time>
      </trkpt>
      <trkpt lat="48.76527" lon="2.16087">
        <ele>80.21</ele>
        <time>2016-01-23T13:48:08Z</time>
      </trkpt>
      <trkpt lat="48.76533" lon="2.16074">
        <ele>80.2</ele>
        <time>2016-01-23T13:48:21Z</time>
      </trkpt>
      <trkpt lat="48.76533" lon="2.16073">
        <ele>80.17</ele>
        <time>2016-01-23T13:48:22Z</time>
      </trkpt>
      <trkpt lat="48.76535" lon="2.16068">
        <ele>80.21</ele>
        <time>2016-01-23T13:48:26Z</time>
      </trkpt>
      <trkpt lat="48.76542" lon="2.1606">
        <ele>80.2</ele>
        <time>2016-01-23T13:48:36Z</time>
      </trkpt>
      <trkpt lat="48.76558" lon="2.1606">
        <ele>80.24</ele>
        <time>2016-01-23T13:48:51Z</time>
      </trkpt>
      <trkpt lat="48.76561" lon="2.16061">
        <ele>80.17</ele>
        <time>2016-01-23T13:48:55Z</time>
      </trkpt>
      <trkpt lat="48.76567" lon="2.16063">
        <ele>80.15</ele>
        <time>2016-01-23T13:48:59Z</time>
      </trkpt>
      <trkpt lat="48.76574" lon="2.16066">
        <ele>80.29</ele>
        <time>2016-01-23T13:49:05Z</time>
      </trkpt>
      <trkpt lat="48.7659" lon="2.16075">
        <ele>80.99</ele>
        <time>2016-01-23T13:49:22Z</time>
      </trkpt>
      <trkpt lat="48.76598" lon="2.16082">
        <ele>81.46</ele>
        <time>2016-01-23T13:49:33Z</time>
      </trkpt>
      <trkpt lat="48.76607" lon="2.16082">
        <ele>81.91</ele>
        <time>2016-01-23T13:49:41Z</time>
      </trkpt>
      <trkpt lat="48.7661" lon="2.16082">
        <ele>81.99</ele>
        <time>2016-01-23T13:49:43Z</time>
      </trkpt>
      <trkpt lat="48.76641" lon="2.16094">
        <ele>85.12</ele>
        <time>2016-01-23T13:50:23Z</time>
      </trkpt>
      <trkpt lat="48.7664" lon="2.16106">
        <ele>85.94</ele>
        <time>2016-01-23T13:50:34Z</time>
      </trkpt>
      <trkpt lat="48.7664" lon="2.16108">
        <ele>85.96</ele>
        <time>2016-01-23T13:50:36Z</time>
      </trkpt>
      <trkpt lat="48.76639" lon="2.16112">
        <ele>86.01</ele>
        <time>2016-01-23T13:50:38Z</time>
      </trkpt>
      <trkpt lat="48.76637" lon="2.16123">
        <ele>86.01</ele>
        <time>2016-01-23T13:50:48Z</time>
      </trkpt>
      <trkpt lat="48.76635" lon="2.16134">
        <ele>85.98</ele>
        <time>2016-01-23T13:50:55Z</time>
      </trkpt>
      <trkpt lat="48.76627" lon="2.16154">
        <ele>85.79</ele>
        <time>2016-01-23T13:51:10Z</time>
      </trkpt>
      <trkpt lat="48.76627" lon="2.16161">
        <ele>85.58</ele>
        <time>2016-01-23T13:51:21Z</time>
      </trkpt>
      <trkpt lat="48.76627" lon="2.16176">
        <ele>85.37</ele>
        <time>2016-01-23T13:51:31Z</time>
      </trkpt>
      <trkpt lat="48.76626" lon="2.1618">
        <ele>85.36</ele>
        <time>2016-01-23T13:51:33Z</time>
      </trkpt>
      <trkpt lat="48.76622" lon="2.16192">
        <ele>85.21</ele>
        <time>2016-01-23T13:51:39Z</time>
      </trkpt>
      <trkpt lat="48.76619" lon="2.16213">
        <ele>85.15</ele>
        <time>2016-01-23T13:51:52Z</time>
      </trkpt>
      <trkpt lat="48.76612" lon="2.16234">
        <ele>85.37</ele>
        <time>2016-01-23T13:52:03Z</time>
      </trkpt>
      <trkpt lat="48.7661" lon="2.1624">
        <ele>85.37</ele>
        <time>2016-01-23T13:52:06Z</time>
      </trkpt>
      <trkpt lat="48.76609" lon="2.16248">
        <ele>85.27</ele>
        <time>2016-01-23T13:52:11Z</time>
      </trkpt>
      <trkpt lat="48.76612" lon="2.16259">
        <ele>85.29</ele>
        <time>2016-01-23T13:52:16Z</time>
      </trkpt>
      <trkpt lat="48.76613" lon="2.16265">
        <ele>85.39</ele>
        <time>2016-01-23T13:52:19Z</time>
      </trkpt>
      <trkpt lat="48.76613" lon="2.16271">
        <ele>85.45</ele>
        <time>2016-01-23T13:52:23Z</time>
      </trkpt>
      <trkpt lat="48.76614" lon="2.16277">
        <ele>85.46</ele>
        <time>2016-01-23T13:52:27Z</time>
      </trkpt>
      <trkpt lat="48.76618" lon="2.16286">
        <ele>85.34</ele>
        <time>2016-01-23T13:52:34Z</time>
      </trkpt>
      <trkpt lat="48.76615" lon="2.163">
        <ele>85.17</ele>
        <time>2016-01-23T13:52:43Z</time>
      </trkpt>
      <trkpt lat="48.76615" lon="2.16303">
        <ele>85.11</ele>
        <time>2016-01-23T13:52:45Z</time>
      </trkpt>
      <trkpt lat="48.76615" lon="2.16306">
        <ele>85.07</ele>
        <time>2016-01-23T13:52:47Z</time>
      </trkpt>
      <trkpt lat="48.76614" lon="2.16311">
        <ele>85.04</ele>
        <time>2016-01-23T13:52:50Z</time>
      </trkpt>
      <trkpt lat="48.76615" lon="2.16324">
        <ele>84.93</ele>
        <time>2016-01-23T13:52:57Z</time>
      </trkpt>
      <trkpt lat="48.76621" lon="2.1634">
        <ele>84.72</ele>
        <time>2016-01-23T13:53:09Z</time>
      </trkpt>
      <trkpt lat="48.76621" lon="2.16341">
        <ele>84.72</ele>
        <time>2016-01-23T13:53:10Z</time>
      </trkpt>
      <trkpt lat="48.76622" lon="2.16365">
        <ele>85.02</ele>
        <time>2016-01-23T13:53:24Z</time>
      </trkpt>
      <trkpt lat="48.76623" lon="2.16373">
        <ele>85.06</ele>
        <time>2016-01-23T13:53:30Z</time>
      </trkpt>
      <trkpt lat="48.76629" lon="2.16402">
        <ele>85.24</ele>
        <time>2016-01-23T13:53:50Z</time>
      </trkpt>
      <trkpt lat="48.76629" lon="2.16405">
        <ele>85.24</ele>
        <time>2016-01-23T13:53:52Z</time>
      </trkpt>
      <trkpt lat="48.76632" lon="2.16412">
        <ele>85.22</ele>
        <time>2016-01-23T13:54:12Z</time>
      </trkpt>
      <trkpt lat="48.76634" lon="2.16418">
        <ele>85.21</ele>
        <time>2016-01-23T13:54:17Z</time>
      </trkpt>
      <trkpt lat="48.76639" lon="2.16433">
        <ele>85.07</ele>
        <time>2016-01-23T13:54:59Z</time>
      </trkpt>
      <trkpt lat="48.7666" lon="2.16515">
        <ele>85.15</ele>
        <time>2016-01-23T13:55:38Z</time>
      </trkpt>
      <trkpt lat="48.76722" lon="2.16496">
        <ele>112.71</ele>
        <time>2016-01-23T14:02:46Z</time>
      </trkpt>
      <trkpt lat="48.76721" lon="2.16477">
        <ele>110.01953125</ele>
      </trkpt>
      <trkpt lat="48.7674" lon="2.1647">
        <ele>115.625</ele>
      </trkpt>
      <trkpt lat="48.76742" lon="2.16456">
        <ele>113.24</ele>
        <time>2016-01-23T14:03:08Z</time>
      </trkpt>
      <trkpt lat="48.76742" lon="2.16448">
        <ele>113.01</ele>
        <time>2016-01-23T14:03:16Z</time>
      </trkpt>
      <trkpt lat="48.76731" lon="2.16426">
        <ele>115.578125</ele>
      </trkpt>
      <trkpt lat="48.76721" lon="2.16413">
        <ele>114.01171875</ele>
      </trkpt>
      <trkpt lat="48.76716" lon="2.16406">
        <ele>113.36328125</ele>
      </trkpt>
      <trkpt lat="48.76711" lon="2.16397">
        <ele>113.015625</ele>
      </trkpt>
      <trkpt lat="48.76711" lon="2.16355">
        <ele>115.98046875</ele>
      </trkpt>
      <trkpt lat="48.76705" lon="2.16301">
        <ele>118.86</ele>
        <time>2016-01-23T14:07:39Z</time>
      </trkpt>
      <trkpt lat="48.76714" lon="2.16309">
        <ele>115.45703125</ele>
      </trkpt>
      <trkpt lat="48.76746" lon="2.16303">
        <ele>120.47</ele>
        <time>2016-01-23T14:07:50Z</time>
      </trkpt>
      <trkpt lat="48.76754" lon="2.16305">
        <ele>122.22</ele>
        <time>2016-01-23T14:08:05Z</time>
      </trkpt>
      <trkpt lat="48.76763" lon="2.16323">
        <ele>124.73</ele>
        <time>2016-01-23T14:08:27Z</time>
      </trkpt>
      <trkpt lat="48.76771" lon="2.16365">
        <ele>127.44</ele>
        <time>2016-01-23T14:08:48Z</time>
      </trkpt>
      <trkpt lat="48.76775" lon="2.1639">
        <ele>129.06</ele>
        <time>2016-01-23T14:09:05Z</time>
      </trkpt>
      <trkpt lat="48.76779" lon="2.16392">
        <ele>130.04</ele>
        <time>2016-01-23T14:09:13Z</time>
      </trkpt>
      <trkpt lat="48.76788" lon="2.16396">
        <ele>131.6</ele>
        <time>2016-01-23T14:09:29Z</time>
      </trkpt>
      <trkpt lat="48.76794" lon="2.16397">
        <ele>133.26</ele>
        <time>2016-01-23T14:09:47Z</time>
      </trkpt>
      <trkpt lat="48.76799" lon="2.16398">
        <ele>135.55</ele>
        <time>2016-01-23T14:10:12Z</time>
      </trkpt>
      <trkpt lat="48.76808" lon="2.164">
        <ele>135.9</ele>
        <time>2016-01-23T14:10:16Z</time>
      </trkpt>
      <trkpt lat="48.76837" lon="2.16404">
        <ele>136.38</ele>
        <time>2016-01-23T14:10:37Z</time>
      </trkpt>
      <trkpt lat="48.76837" lon="2.16384">
        <ele>135.95</ele>
        <time>2016-01-23T14:10:58Z</time>
      </trkpt>
      <trkpt lat="48.76882" lon="2.16242">
        <ele>136.16</ele>
        <time>2016-01-23T14:18:47Z</time>
      </trkpt>
      <trkpt lat="48.76876" lon="2.16253">
        <ele>135.49</ele>
        <time>2016-01-23T14:19:09Z</time>
      </trkpt>
      <trkpt lat="48.76877" lon="2.16255">
        <ele>135.47</ele>
        <time>2016-01-23T14:19:17Z</time>
      </trkpt>
      <trkpt lat="48.76876" lon="2.16268">
        <ele>134.84</ele>
        <time>2016-01-23T14:19:27Z</time>
      </trkpt>
      <trkpt lat="48.76866" lon="2.16276">
        <ele>133.73</ele>
        <time>2016-01-23T14:19:41Z</time>
      </trkpt>
      <trkpt lat="48.76858" lon="2.1625">
        <ele>133.14</ele>
        <time>2016-01-23T14:20:20Z</time>
      </trkpt>
      <trkpt lat="48.76852" lon="2.16229">
        <ele>132.97</ele>
        <time>2016-01-23T14:20:38Z</time>
      </trkpt>
      <trkpt lat="48.76847" lon="2.16209">
        <ele>132.71</ele>
        <time>2016-01-23T14:20:47Z</time>
      </trkpt>
      <trkpt lat="48.76844" lon="2.16201">
        <ele>132.69</ele>
        <time>2016-01-23T14:20:50Z</time>
      </trkpt>
      <trkpt lat="48.76836" lon="2.1618">
        <ele>132.56</ele>
        <time>2016-01-23T14:21:08Z</time>
      </trkpt>
      <trkpt lat="48.76832" lon="2.16167">
        <ele>132.18</ele>
        <time>2016-01-23T14:21:13Z</time>
      </trkpt>
      <trkpt lat="48.76829" lon="2.1616">
        <ele>131.88</ele>
        <time>2016-01-23T14:21:21Z</time>
      </trkpt>
      <trkpt lat="48.76825" lon="2.16151">
        <ele>131.54</ele>
        <time>2016-01-23T14:21:33Z</time>
      </trkpt>
      <trkpt lat="48.7682" lon="2.16135">
        <ele>131.38</ele>
        <time>2016-01-23T14:21:41Z</time>
      </trkpt>
      <trkpt lat="48.76818" lon="2.16122">
        <ele>131.11</ele>
        <time>2016-01-23T14:21:47Z</time>
      </trkpt>
      <trkpt lat="48.76811" lon="2.16117">
        <ele>130.79</ele>
        <time>2016-01-23T14:22:02Z</time>
      </trkpt>
      <trkpt lat="48.76815" lon="2.16106">
        <ele>130.59</ele>
        <time>2016-01-23T14:22:10Z</time>
      </trkpt>
      <trkpt lat="48.76815" lon="2.16097">
        <ele>130.5</ele>
        <time>2016-01-23T14:22:14Z</time>
      </trkpt>
      <trkpt lat="48.76816" lon="2.16093">
        <ele>130.43</ele>
        <time>2016-01-23T14:22:16Z</time>
      </trkpt>
      <trkpt lat="48.76816" lon="2.16089">
        <ele>130.32</ele>
        <time>2016-01-23T14:22:18Z</time>
      </trkpt>
      <trkpt lat="48.76817" lon="2.16084">
        <ele>130.32</ele>
        <time>2016-01-23T14:22:21Z</time>
      </trkpt>
      <trkpt lat="48.76815" lon="2.16075">
        <ele>130.38</ele>
        <time>2016-01-23T14:22:25Z</time>
      </trkpt>
      <trkpt lat="48.76818" lon="2.16067">
        <ele>130.16</ele>
        <time>2016-01-23T14:22:30Z</time>
      </trkpt>
      <trkpt lat="48.76819" lon="2.16055">
        <ele>130.03</ele>
        <time>2016-01-23T14:22:38Z</time>
      </trkpt>
      <trkpt lat="48.76821" lon="2.16041">
        <ele>129.75</ele>
        <time>2016-01-23T14:22:44Z</time>
      </trkpt>
      <trkpt lat="48.76826" lon="2.16017">
        <ele>129.23</ele>
        <time>2016-01-23T14:23:00Z</time>
      </trkpt>
      <trkpt lat="48.7683" lon="2.1601">
        <ele>129.16</ele>
        <time>2016-01-23T14:23:06Z</time>
      </trkpt>
      <trkpt lat="48.76833" lon="2.16003">
        <ele>129.39</ele>
        <time>2016-01-23T14:23:12Z</time>
      </trkpt>
      <trkpt lat="48.76839" lon="2.15999">
        <ele>129.82</ele>
        <time>2016-01-23T14:23:18Z</time>
      </trkpt>
      <trkpt lat="48.76842" lon="2.15998">
        <ele>130.15</ele>
        <time>2016-01-23T14:23:22Z</time>
      </trkpt>
      <trkpt lat="48.76856" lon="2.15994">
        <ele>131.86</ele>
        <time>2016-01-23T14:23:39Z</time>
      </trkpt>
      <trkpt lat="48.76866" lon="2.15996">
        <ele>133</ele>
        <time>2016-01-23T14:23:53Z</time>
      </trkpt>
      <trkpt lat="48.7687" lon="2.15995">
        <ele>133.27</ele>
        <time>2016-01-23T14:23:57Z</time>
      </trkpt>
      <trkpt lat="48.76874" lon="2.15995">
        <ele>133.44</ele>
        <time>2016-01-23T14:23:59Z</time>
      </trkpt>
      <trkpt lat="48.76881" lon="2.15997">
        <ele>133.9</ele>
        <time>2016-01-23T14:24:04Z</time>
      </trkpt>
      <trkpt lat="48.76885" lon="2.15997">
        <ele>134.53</ele>
        <time>2016-01-23T14:24:14Z</time>
      </trkpt>
      <trkpt lat="48.76886" lon="2.15998">
        <ele>134.93</ele>
        <time>2016-01-23T14:24:21Z</time>
      </trkpt>
      <trkpt lat="48.76899" lon="2.16001">
        <ele>135.5</ele>
        <time>2016-01-23T14:24:30Z</time>
      </trkpt>
      <trkpt lat="48.76908" lon="2.16003">
        <ele>136.02</ele>
        <time>2016-01-23T14:24:43Z</time>
      </trkpt>
      <trkpt lat="48.76914" lon="2.16003">
        <ele>136.08</ele>
        <time>2016-01-23T14:24:44Z</time>
      </trkpt>
      <trkpt lat="48.76921" lon="2.16004">
        <ele>136.24</ele>
        <time>2016-01-23T14:24:49Z</time>
      </trkpt>
      <trkpt lat="48.76931" lon="2.16007">
        <ele>136.95</ele>
        <time>2016-01-23T14:25:05Z</time>
      </trkpt>
      <trkpt lat="48.76938" lon="2.16007">
        <ele>137.55</ele>
        <time>2016-01-23T14:25:15Z</time>
      </trkpt>
      <trkpt lat="48.76942" lon="2.16008">
        <ele>137.73</ele>
        <time>2016-01-23T14:25:18Z</time>
      </trkpt>
      <trkpt lat="48.76952" lon="2.16009">
        <ele>138.01</ele>
        <time>2016-01-23T14:25:35Z</time>
      </trkpt>
      <trkpt lat="48.76964" lon="2.16011">
        <ele>138.26</ele>
        <time>2016-01-23T14:25:43Z</time>
      </trkpt>
      <trkpt lat="48.76968" lon="2.16011">
        <ele>138.4</ele>
        <time>2016-01-23T14:25:46Z</time>
      </trkpt>
      <trkpt lat="48.76973" lon="2.16011">
        <ele>138.49</ele>
        <time>2016-01-23T14:25:51Z</time>
      </trkpt>
      <trkpt lat="48.76979" lon="2.16012">
        <ele>138.53</ele>
        <time>2016-01-23T14:25:57Z</time>
      </trkpt>
      <trkpt lat="48.76985" lon="2.16012">
        <ele>138.96</ele>
        <time>2016-01-23T14:26:11Z</time>
      </trkpt>
      <trkpt lat="48.7699" lon="2.16013">
        <ele>139.01</ele>
        <time>2016-01-23T14:26:13Z</time>
      </trkpt>
      <trkpt lat="48.76993" lon="2.16013">
        <ele>139.4</ele>
        <time>2016-01-23T14:26:20Z</time>
      </trkpt>
      <trkpt lat="48.77002" lon="2.16015">
        <ele>139.72</ele>
        <time>2016-01-23T14:26:29Z</time>
      </trkpt>
      <trkpt lat="48.77007" lon="2.16015">
        <ele>139.95</ele>
        <time>2016-01-23T14:26:33Z</time>
      </trkpt>
      <trkpt lat="48.77012" lon="2.16015">
        <ele>140.1</ele>
        <time>2016-01-23T14:26:36Z</time>
      </trkpt>
      <trkpt lat="48.77019" lon="2.16016">
        <ele>140.17</ele>
        <time>2016-01-23T14:26:38Z</time>
      </trkpt>
      <trkpt lat="48.77024" lon="2.16017">
        <ele>141.15</ele>
        <time>2016-01-23T14:26:59Z</time>
      </trkpt>
      <trkpt lat="48.7703" lon="2.16017">
        <ele>141.19</ele>
        <time>2016-01-23T14:27:00Z</time>
      </trkpt>
      <trkpt lat="48.77039" lon="2.16018">
        <ele>141.49</ele>
        <time>2016-01-23T14:27:09Z</time>
      </trkpt>
      <trkpt lat="48.77053" lon="2.16021">
        <ele>141.75</ele>
        <time>2016-01-23T14:27:22Z</time>
      </trkpt>
      <trkpt lat="48.77057" lon="2.16021">
        <ele>142.06</ele>
        <time>2016-01-23T14:27:29Z</time>
      </trkpt>
      <trkpt lat="48.77062" lon="2.16021">
        <ele>142.49</ele>
        <time>2016-01-23T14:27:36Z</time>
      </trkpt>
      <trkpt lat="48.77069" lon="2.16022">
        <ele>142.66</ele>
        <time>2016-01-23T14:27:51Z</time>
      </trkpt>
      <trkpt lat="48.77072" lon="2.16022">
        <ele>142.37</ele>
        <time>2016-01-23T14:28:11Z</time>
      </trkpt>
      <trkpt lat="48.77075" lon="2.16022">
        <ele>142.29</ele>
        <time>2016-01-23T14:28:41Z</time>
      </trkpt>
      <trkpt lat="48.77076" lon="2.16023">
        <ele>142.04</ele>
        <time>2016-01-23T14:29:06Z</time>
      </trkpt>
      <trkpt lat="48.7708" lon="2.16023">
        <ele>141.72</ele>
        <time>2016-01-23T14:29:47Z</time>
      </trkpt>
      <trkpt lat="48.77089" lon="2.16023">
        <ele>141.72</ele>
        <time>2016-01-23T14:29:49Z</time>
      </trkpt>
      <trkpt lat="48.77089" lon="2.16034">
        <ele>142.4</ele>
        <time>2016-01-23T14:39:29Z</time>
      </trkpt>
      <trkpt lat="48.77088" lon="2.16048">
        <ele>142.77</ele>
        <time>2016-01-23T14:39:45Z</time>
      </trkpt>
      <trkpt lat="48.77089" lon="2.16054">
        <ele>142.82</ele>
        <time>2016-01-23T14:39:49Z</time>
      </trkpt>
      <trkpt lat="48.77088" lon="2.16063">
        <ele>142.84</ele>
        <time>2016-01-23T14:39:52Z</time>
      </trkpt>
      <trkpt lat="48.77087" lon="2.16084">
        <ele>143.31</ele>
        <time>2016-01-23T14:40:18Z</time>
      </trkpt>
      <trkpt lat="48.77089" lon="2.16095">
        <ele>143.69</ele>
        <time>2016-01-23T14:40:38Z</time>
      </trkpt>
      <trkpt lat="48.77097" lon="2.161">
        <ele>144.35</ele>
        <time>2016-01-23T14:40:52Z</time>
      </trkpt>
      <trkpt lat="48.77099" lon="2.161">
        <ele>144.36</ele>
        <time>2016-01-23T14:40:54Z</time>
      </trkpt>
      <trkpt lat="48.7712" lon="2.16111">
        <ele>144.71</ele>
        <time>2016-01-23T14:41:08Z</time>
      </trkpt>
      <trkpt lat="48.7712" lon="2.1613">
        <ele>145.05</ele>
        <time>2016-01-23T14:41:32Z</time>
      </trkpt>
      <trkpt lat="48.77124" lon="2.16123">
        <ele>145.08</ele>
        <time>2016-01-23T14:41:45Z</time>
      </trkpt>
      <trkpt lat="48.77124" lon="2.1611">
        <ele>145.34</ele>
        <time>2016-01-23T14:44:16Z</time>
      </trkpt>
      <trkpt lat="48.77119" lon="2.16105">
        <ele>144.89</ele>
        <time>2016-01-23T14:44:32Z</time>
      </trkpt>
      <trkpt lat="48.77111" lon="2.16101">
        <ele>144.88</ele>
        <time>2016-01-23T14:44:44Z</time>
      </trkpt>
      <trkpt lat="48.77099" lon="2.16098">
        <ele>144.56</ele>
        <time>2016-01-23T14:45:07Z</time>
      </trkpt>
      <trkpt lat="48.77092" lon="2.16095">
        <ele>144.18</ele>
        <time>2016-01-23T14:45:27Z</time>
      </trkpt>
      <trkpt lat="48.77089" lon="2.16094">
        <ele>144.24</ele>
        <time>2016-01-23T14:45:36Z</time>
      </trkpt>
      <trkpt lat="48.77087" lon="2.16103">
        <ele>143.8</ele>
        <time>2016-01-23T14:45:56Z</time>
      </trkpt>
      <trkpt lat="48.77087" lon="2.1611">
        <ele>144.06</ele>
        <time>2016-01-23T14:46:14Z</time>
      </trkpt>
      <trkpt lat="48.77087" lon="2.1612">
        <ele>144.11</ele>
        <time>2016-01-23T14:46:31Z</time>
      </trkpt>
      <trkpt lat="48.77086" lon="2.16132">
        <ele>144.51</ele>
        <time>2016-01-23T14:46:42Z</time>
      </trkpt>
      <trkpt lat="48.77086" lon="2.16148">
        <ele>145.02</ele>
        <time>2016-01-23T14:46:53Z</time>
      </trkpt>
      <trkpt lat="48.77087" lon="2.16164">
        <ele>144.84</ele>
        <time>2016-01-23T14:47:05Z</time>
      </trkpt>
      <trkpt lat="48.77086" lon="2.16177">
        <ele>145</ele>
        <time>2016-01-23T14:47:22Z</time>
      </trkpt>
      <trkpt lat="48.77086" lon="2.16184">
        <ele>145</ele>
        <time>2016-01-23T14:47:27Z</time>
      </trkpt>
      <trkpt lat="48.77086" lon="2.16199">
        <ele>145.25</ele>
        <time>2016-01-23T14:47:41Z</time>
      </trkpt>
      <trkpt lat="48.77086" lon="2.16233">
        <ele>145.38</ele>
        <time>2016-01-23T14:48:02Z</time>
      </trkpt>
      <trkpt lat="48.77087" lon="2.16252">
        <ele>145.53</ele>
        <time>2016-01-23T14:48:21Z</time>
      </trkpt>
      <trkpt lat="48.7709" lon="2.16261">
        <ele>145.84</ele>
        <time>2016-01-23T14:48:45Z</time>
      </trkpt>
      <trkpt lat="48.77095" lon="2.16272">
        <ele>145.81</ele>
        <time>2016-01-23T14:49:02Z</time>
      </trkpt>
      <trkpt lat="48.77099" lon="2.16283">
        <ele>145.96</ele>
        <time>2016-01-23T14:49:18Z</time>
      </trkpt>
      <trkpt lat="48.77103" lon="2.16291">
        <ele>146.07</ele>
        <time>2016-01-23T14:49:27Z</time>
      </trkpt>
      <trkpt lat="48.77115" lon="2.16316">
        <ele>146.33</ele>
        <time>2016-01-23T14:49:47Z</time>
      </trkpt>
      <trkpt lat="48.77131" lon="2.16351">
        <ele>147.32</ele>
        <time>2016-01-23T14:50:15Z</time>
      </trkpt>
      <trkpt lat="48.77146" lon="2.16384">
        <ele>148.19</ele>
        <time>2016-01-23T14:50:43Z</time>
      </trkpt>
      <trkpt lat="48.77154" lon="2.16401">
        <ele>148.83</ele>
        <time>2016-01-23T14:51:04Z</time>
      </trkpt>
      <trkpt lat="48.77166" lon="2.16407">
        <ele>148.91</ele>
        <time>2016-01-23T14:51:06Z</time>
      </trkpt>
      <trkpt lat="48.77176" lon="2.16409">
        <ele>149.22</ele>
        <time>2016-01-23T14:51:18Z</time>
      </trkpt>
      <trkpt lat="48.77189" lon="2.16414">
        <ele>149.05</ele>
        <time>2016-01-23T14:51:41Z</time>
      </trkpt>
      <trkpt lat="48.77166" lon="2.16434">
        <ele>148.71</ele>
        <time>2016-01-23T14:52:03Z</time>
      </trkpt>
      <trkpt lat="48.77146" lon="2.16451">
        <ele>148.08</ele>
        <time>2016-01-23T14:52:26Z</time>
      </trkpt>
      <trkpt lat="48.77128" lon="2.16462">
        <ele>147.04</ele>
        <time>2016-01-23T14:52:46Z</time>
      </trkpt>
      <trkpt lat="48.77101" lon="2.16484">
        <ele>145.73</ele>
        <time>2016-01-23T14:53:12Z</time>
      </trkpt>
      <trkpt lat="48.77092" lon="2.16495">
        <ele>145.4</ele>
        <time>2016-01-23T14:53:24Z</time>
      </trkpt>
      <trkpt lat="48.77084" lon="2.16502">
        <ele>145.13</ele>
        <time>2016-01-23T14:53:33Z</time>
      </trkpt>
      <trkpt lat="48.7708" lon="2.16506">
        <ele>144.95</ele>
        <time>2016-01-23T14:53:39Z</time>
      </trkpt>
      <trkpt lat="48.77076" lon="2.1651">
        <ele>144.84</ele>
        <time>2016-01-23T14:53:44Z</time>
      </trkpt>
      <trkpt lat="48.77056" lon="2.16522">
        <ele>143.98</ele>
        <time>2016-01-23T14:54:03Z</time>
      </trkpt>
      <trkpt lat="48.77041" lon="2.16534">
        <ele>143.47</ele>
        <time>2016-01-23T14:54:22Z</time>
      </trkpt>
      <trkpt lat="48.77036" lon="2.16538">
        <ele>143.21</ele>
        <time>2016-01-23T14:54:27Z</time>
      </trkpt>
      <trkpt lat="48.77031" lon="2.16542">
        <ele>142.96</ele>
        <time>2016-01-23T14:54:32Z</time>
      </trkpt>
      <trkpt lat="48.77023" lon="2.16549">
        <ele>142.68</ele>
        <time>2016-01-23T14:54:42Z</time>
      </trkpt>
      <trkpt lat="48.77013" lon="2.16555">
        <ele>142.47</ele>
        <time>2016-01-23T14:54:50Z</time>
      </trkpt>
      <trkpt lat="48.7701" lon="2.16557">
        <ele>142.46</ele>
        <time>2016-01-23T14:54:53Z</time>
      </trkpt>
      <trkpt lat="48.76999" lon="2.16566">
        <ele>142.12</ele>
        <time>2016-01-23T14:55:05Z</time>
      </trkpt>
      <trkpt lat="48.76991" lon="2.16573">
        <ele>141.74</ele>
        <time>2016-01-23T14:55:15Z</time>
      </trkpt>
      <trkpt lat="48.76986" lon="2.16577">
        <ele>141.15</ele>
        <time>2016-01-23T14:55:38Z</time>
      </trkpt>
      <trkpt lat="48.76981" lon="2.16579">
        <ele>141.15</ele>
        <time>2016-01-23T14:55:53Z</time>
      </trkpt>
      <trkpt lat="48.7696" lon="2.16596">
        <ele>140.36</ele>
        <time>2016-01-23T14:57:34Z</time>
      </trkpt>
      <trkpt lat="48.76974" lon="2.16645">
        <ele>140.81</ele>
        <time>2016-01-23T14:57:48Z</time>
      </trkpt>
      <trkpt lat="48.7698" lon="2.16666">
        <ele>141.21</ele>
        <time>2016-01-23T14:58:08Z</time>
      </trkpt>
      <trkpt lat="48.76982" lon="2.16673">
        <ele>141.43</ele>
        <time>2016-01-23T14:58:20Z</time>
      </trkpt>
      <trkpt lat="48.76989" lon="2.16702">
        <ele>141.63</ele>
        <time>2016-01-23T14:58:46Z</time>
      </trkpt>
      <trkpt lat="48.76998" lon="2.16743">
        <ele>142.05</ele>
        <time>2016-01-23T14:59:01Z</time>
      </trkpt>
      <trkpt lat="48.77003" lon="2.16754">
        <ele>142.1</ele>
        <time>2016-01-23T14:59:08Z</time>
      </trkpt>
      <trkpt lat="48.77011" lon="2.16771">
        <ele>142.39</ele>
        <time>2016-01-23T14:59:21Z</time>
      </trkpt>
      <trkpt lat="48.77027" lon="2.16797">
        <ele>142.75</ele>
        <time>2016-01-23T14:59:44Z</time>
      </trkpt>
      <trkpt lat="48.77035" lon="2.16813">
        <ele>142.62</ele>
        <time>2016-01-23T14:59:58Z</time>
      </trkpt>
      <trkpt lat="48.77019" lon="2.16823">
        <ele>142.37</ele>
        <time>2016-01-23T15:00:13Z</time>
      </trkpt>
      <trkpt lat="48.77009" lon="2.16823">
        <ele>141.88</ele>
        <time>2016-01-23T15:00:25Z</time>
      </trkpt>
      <trkpt lat="48.77001" lon="2.16825">
        <ele>151.83</ele>
        <time>2016-01-23T16:34:14Z</time>
      </trkpt>
      <trkpt lat="48.76991" lon="2.16825">
        <ele>151.76</ele>
        <time>2016-01-23T16:34:31Z</time>
      </trkpt>
      <trkpt lat="48.76973" lon="2.16827">
        <ele>150.97</ele>
        <time>2016-01-23T16:34:53Z</time>
      </trkpt>
      <trkpt lat="48.76942" lon="2.16842">
        <ele>150.35</ele>
        <time>2016-01-23T16:35:18Z</time>
      </trkpt>
      <trkpt lat="48.76933" lon="2.16847">
        <ele>150</ele>
        <time>2016-01-23T16:35:27Z</time>
      </trkpt>
      <trkpt lat="48.7693" lon="2.1685">
        <ele>149.72</ele>
        <time>2016-01-23T16:35:32Z</time>
      </trkpt>
      <trkpt lat="48.7692" lon="2.16857">
        <ele>149.23</ele>
        <time>2016-01-23T16:35:41Z</time>
      </trkpt>
      <trkpt lat="48.76893" lon="2.1687">
        <ele>147.8</ele>
        <time>2016-01-23T16:36:06Z</time>
      </trkpt>
      <trkpt lat="48.76884" lon="2.16877">
        <ele>147.23</ele>
        <time>2016-01-23T16:36:15Z</time>
      </trkpt>
      <trkpt lat="48.76876" lon="2.16881">
        <ele>146.69</ele>
        <time>2016-01-23T16:36:22Z</time>
      </trkpt>
      <trkpt lat="48.76867" lon="2.16882">
        <ele>145.94</ele>
        <time>2016-01-23T16:36:32Z</time>
      </trkpt>
      <trkpt lat="48.76864" lon="2.16868">
        <ele>145.66</ele>
        <time>2016-01-23T16:36:47Z</time>
      </trkpt>
      <trkpt lat="48.76862" lon="2.16855">
        <ele>145.19</ele>
        <time>2016-01-23T16:37:01Z</time>
      </trkpt>
      <trkpt lat="48.7686" lon="2.16845">
        <ele>145.05</ele>
        <time>2016-01-23T16:37:14Z</time>
      </trkpt>
      <trkpt lat="48.76861" lon="2.16835">
        <ele>144.75</ele>
        <time>2016-01-23T16:37:25Z</time>
      </trkpt>
      <trkpt lat="48.76864" lon="2.16813">
        <ele>144.33</ele>
        <time>2016-01-23T16:37:41Z</time>
      </trkpt>
      <trkpt lat="48.76873" lon="2.16784">
        <ele>144.15</ele>
        <time>2016-01-23T16:38:04Z</time>
      </trkpt>
      <trkpt lat="48.76883" lon="2.16743">
        <ele>144.19</ele>
        <time>2016-01-23T16:38:24Z</time>
      </trkpt>
      <trkpt lat="48.76883" lon="2.16726">
        <ele>144.36</ele>
        <time>2016-01-23T16:38:28Z</time>
      </trkpt>
      <trkpt lat="48.76885" lon="2.16685">
        <ele>144.68</ele>
        <time>2016-01-23T16:38:33Z</time>
      </trkpt>
      <trkpt lat="48.76878" lon="2.16685">
        <ele>143.45</ele>
        <time>2016-01-23T16:38:50Z</time>
      </trkpt>
      <trkpt lat="48.76864" lon="2.16718">
        <ele>140.17</ele>
        <time>2016-01-23T16:39:16Z</time>
      </trkpt>
      <trkpt lat="48.76861" lon="2.16747">
        <ele>137.02</ele>
        <time>2016-01-23T16:39:32Z</time>
      </trkpt>
      <trkpt lat="48.76855" lon="2.16758">
        <ele>133.89</ele>
        <time>2016-01-23T16:39:50Z</time>
      </trkpt>
      <trkpt lat="48.76846" lon="2.16764">
        <ele>130.69</ele>
        <time>2016-01-23T16:40:07Z</time>
      </trkpt>
      <trkpt lat="48.76837" lon="2.16769">
        <ele>128.25</ele>
        <time>2016-01-23T16:40:24Z</time>
      </trkpt>
      <trkpt lat="48.76826" lon="2.16777">
        <ele>124.95</ele>
        <time>2016-01-23T16:40:43Z</time>
      </trkpt>
      <trkpt lat="48.76816" lon="2.16784">
        <ele>122.68</ele>
        <time>2016-01-23T16:40:56Z</time>
      </trkpt>
      <trkpt lat="48.76798" lon="2.16798">
        <ele>119.47</ele>
        <time>2016-01-23T16:41:14Z</time>
      </trkpt>
      <trkpt lat="48.76796" lon="2.168">
        <ele>118.83</ele>
        <time>2016-01-23T16:41:17Z</time>
      </trkpt>
      <trkpt lat="48.76787" lon="2.16807">
        <ele>115.47</ele>
        <time>2016-01-23T16:41:35Z</time>
      </trkpt>
      <trkpt lat="48.76781" lon="2.16812">
        <ele>112.38</ele>
        <time>2016-01-23T16:41:54Z</time>
      </trkpt>
      <trkpt lat="48.76776" lon="2.16818">
        <ele>109.3</ele>
        <time>2016-01-23T16:42:12Z</time>
      </trkpt>
      <trkpt lat="48.76769" lon="2.16825">
        <ele>108.28</ele>
        <time>2016-01-23T16:42:19Z</time>
      </trkpt>
      <trkpt lat="48.7676" lon="2.16841">
        <ele>105.41</ele>
        <time>2016-01-23T16:42:35Z</time>
      </trkpt>
      <trkpt lat="48.76747" lon="2.16838">
        <ele>105.1</ele>
        <time>2016-01-23T16:42:37Z</time>
      </trkpt>
      <trkpt lat="48.7674" lon="2.16836">
        <ele>104.26</ele>
        <time>2016-01-23T16:42:42Z</time>
      </trkpt>
      <trkpt lat="48.7672" lon="2.16831">
        <ele>101.02</ele>
        <time>2016-01-23T16:43:00Z</time>
      </trkpt>
      <trkpt lat="48.76703" lon="2.16828">
        <ele>98.56</ele>
        <time>2016-01-23T16:43:15Z</time>
      </trkpt>
      <trkpt lat="48.76697" lon="2.16826">
        <ele>98.23</ele>
        <time>2016-01-23T16:43:18Z</time>
      </trkpt>
      <trkpt lat="48.76687" lon="2.16823">
        <ele>96.81</ele>
        <time>2016-01-23T16:43:28Z</time>
      </trkpt>
      <trkpt lat="48.76678" lon="2.1682">
        <ele>95.46</ele>
        <time>2016-01-23T16:43:38Z</time>
      </trkpt>
      <trkpt lat="48.76669" lon="2.16818">
        <ele>93.07</ele>
        <time>2016-01-23T16:43:54Z</time>
      </trkpt>
      <trkpt lat="48.76671" lon="2.16807">
        <ele>91.52</ele>
        <time>2016-01-23T16:44:10Z</time>
      </trkpt>
      <trkpt lat="48.76671" lon="2.16793">
        <ele>90.39</ele>
        <time>2016-01-23T16:44:22Z</time>
      </trkpt>
      <trkpt lat="48.76666" lon="2.16788">
        <ele>88.12</ele>
        <time>2016-01-23T16:44:38Z</time>
      </trkpt>
      <trkpt lat="48.76665" lon="2.16781">
        <ele>87.66</ele>
        <time>2016-01-23T16:44:42Z</time>
      </trkpt>
      <trkpt lat="48.76654" lon="2.16773">
        <ele>86.53</ele>
        <time>2016-01-23T16:44:52Z</time>
      </trkpt>
      <trkpt lat="48.76608" lon="2.16766">
        <ele>85.13</ele>
        <time>2016-01-23T16:45:05Z</time>
      </trkpt>
      <trkpt lat="48.76596" lon="2.16765">
        <ele>84.91</ele>
        <time>2016-01-23T16:45:09Z</time>
      </trkpt>
      <trkpt lat="48.76591" lon="2.16764">
        <ele>84.63</ele>
        <time>2016-01-23T16:45:13Z</time>
      </trkpt>
      <trkpt lat="48.76582" lon="2.16763">
        <ele>84.2</ele>
        <time>2016-01-23T16:45:19Z</time>
      </trkpt>
      <trkpt lat="48.76577" lon="2.16762">
        <ele>84.03</ele>
        <time>2016-01-23T16:45:24Z</time>
      </trkpt>
      <trkpt lat="48.76572" lon="2.16761">
        <ele>83.94</ele>
        <time>2016-01-23T16:45:28Z</time>
      </trkpt>
      <trkpt lat="48.76561" lon="2.1676">
        <ele>83.64</ele>
        <time>2016-01-23T16:45:41Z</time>
      </trkpt>
      <trkpt lat="48.76554" lon="2.1676">
        <ele>83.42</ele>
        <time>2016-01-23T16:45:46Z</time>
      </trkpt>
      <trkpt lat="48.76549" lon="2.16759">
        <ele>83.89</ele>
        <time>2016-01-23T16:45:56Z</time>
      </trkpt>
      <trkpt lat="48.76536" lon="2.16748">
        <ele>84.31</ele>
        <time>2016-01-23T16:46:09Z</time>
      </trkpt>
      <trkpt lat="48.76524" lon="2.16747">
        <ele>83.98</ele>
        <time>2016-01-23T16:46:22Z</time>
      </trkpt>
      <trkpt lat="48.76522" lon="2.16747">
        <ele>83.99</ele>
        <time>2016-01-23T16:46:23Z</time>
      </trkpt>
      <trkpt lat="48.76515" lon="2.16745">
        <ele>84.28</ele>
        <time>2016-01-23T16:46:42Z</time>
      </trkpt>
      <trkpt lat="48.76508" lon="2.16742">
        <ele>84.85</ele>
        <time>2016-01-23T16:46:58Z</time>
      </trkpt>
    </trkseg>
  </trk>
</gpx>